createdAt,value
2022-12-11T00:00:06.582Z,21.65
2022-12-11T00:02:33.139Z,21.35
2022-12-11T00:04:59.632Z,23.55
2022-12-11T00:07:26.139Z,23.23
2022-12-11T00:09:52.607Z,23.23
2022-12-11T00:12:19.148Z,23.40
2022-12-11T00:14:45.715Z,22.35
2022-12-11T00:17:12.249Z,22.33
2022-12-11T00:19:38.757Z,23.00
2022-12-11T00:22:05.274Z,23.40
2022-12-11T00:24:31.868Z,23.35
2022-12-11T00:26:58.463Z,21.73
2022-12-11T00:29:24.961Z,22.52
2022-12-11T00:31:51.521Z,22.88
2022-12-11T00:34:18.065Z,21.05
2022-12-11T00:36:44.533Z,21.83
2022-12-11T00:39:11.081Z,21.75
2022-12-11T00:41:37.588Z,21.63
2022-12-11T00:44:04.706Z,21.88
2022-12-11T00:46:31.430Z,21.73
2022-12-11T00:48:58.377Z,21.63
2022-12-11T00:51:25.859Z,23.25
2022-12-11T00:53:52.619Z,21.65
2022-12-11T00:56:20.973Z,21.92
2022-12-11T00:58:48.230Z,20.98
2022-12-11T01:01:25.945Z,22.52
2022-12-11T01:03:53.305Z,22.05
2022-12-11T01:06:23.416Z,21.80
2022-12-11T01:09:08.672Z,20.60
2022-12-11T01:11:35.394Z,21.90
2022-12-11T01:14:01.902Z,21.02
2022-12-11T01:16:28.567Z,21.38
2022-12-11T01:18:55.058Z,20.40
2022-12-11T01:21:21.595Z,20.25
2022-12-11T01:23:50.275Z,21.15
2022-12-11T01:26:17.051Z,20.00
2022-12-11T01:28:43.885Z,20.23
2022-12-11T01:31:12.179Z,20.13
2022-12-11T01:33:39.254Z,19.88
2022-12-11T01:36:20.911Z,22.17
2022-12-11T01:38:48.816Z,19.13
2022-12-11T01:41:16.710Z,20.17
2022-12-11T01:44:07.667Z,18.92
2022-12-11T01:46:36.393Z,20.23
2022-12-11T01:49:06.336Z,19.38
2022-12-11T01:51:36.199Z,20.25
2022-12-11T01:54:08.370Z,20.83
2022-12-11T01:56:36.142Z,20.10
2022-12-11T01:59:08.061Z,20.15
2022-12-11T02:01:34.552Z,20.98
2022-12-11T02:04:01.643Z,21.25
2022-12-11T02:06:34.287Z,20.33
2022-12-11T02:09:01.116Z,18.88
2022-12-11T02:11:46.453Z,18.70
2022-12-11T02:14:20.378Z,19.75
2022-12-11T02:16:56.480Z,20.50
2022-12-11T02:19:43.038Z,19.20
2022-12-11T02:22:15.264Z,20.23
2022-12-11T02:25:03.064Z,19.92
2022-12-11T02:27:46.309Z,18.48
2022-12-11T02:30:15.510Z,19.35
2022-12-11T02:32:51.382Z,19.52
2022-12-11T02:35:34.071Z,20.60
2022-12-11T02:38:07.823Z,19.95
2022-12-11T02:43:05.067Z,18.77
2022-12-11T02:45:32.038Z,19.00
2022-12-11T02:48:01.157Z,18.40
2022-12-11T02:50:28.541Z,18.23
2022-12-11T02:52:56.843Z,19.02
2022-12-11T02:55:24.848Z,19.20
2022-12-11T02:57:55.467Z,19.08
2022-12-11T03:00:22.052Z,17.33
2022-12-11T03:02:48.642Z,19.05
2022-12-11T03:05:15.771Z,18.30
2022-12-11T03:07:43.688Z,19.35
2022-12-11T03:10:14.518Z,17.73
2022-12-11T03:12:43.409Z,19.50
2022-12-11T03:15:14.028Z,18.58
2022-12-11T03:17:46.475Z,19.02
2022-12-11T03:20:35.334Z,19.00
2022-12-11T03:23:19.474Z,18.63
2022-12-11T03:25:59.679Z,19.75
2022-12-11T03:28:30.563Z,20.00
2022-12-11T03:30:58.248Z,19.95
2022-12-11T03:33:33.028Z,20.02
2022-12-11T03:36:04.960Z,22.67
2022-12-11T03:38:36.012Z,19.35
2022-12-11T03:41:04.268Z,21.15
2022-12-11T03:43:32.039Z,19.95
2022-12-11T03:45:59.426Z,21.02
2022-12-11T03:48:29.900Z,22.15
2022-12-11T03:50:57.209Z,20.73
2022-12-11T03:53:24.072Z,20.48
2022-12-11T03:55:51.565Z,20.20
2022-12-11T03:58:18.064Z,22.30
2022-12-11T04:00:44.660Z,21.85
2022-12-11T04:03:14.571Z,21.95
2022-12-11T04:05:43.653Z,22.08
2022-12-11T04:08:10.896Z,21.83
2022-12-11T04:10:37.490Z,22.45
2022-12-11T04:13:04.091Z,23.23
2022-12-11T04:15:30.597Z,21.00
2022-12-11T04:18:15.322Z,22.85
2022-12-11T04:21:00.540Z,21.10
2022-12-11T04:23:45.694Z,22.08
2022-12-11T04:26:15.483Z,21.77
2022-12-11T04:28:43.432Z,21.58
2022-12-11T04:31:14.672Z,22.95
2022-12-11T04:33:41.603Z,22.70
2022-12-11T04:36:09.143Z,21.83
2022-12-11T04:38:35.898Z,22.00
2022-12-11T04:41:08.412Z,20.92
2022-12-11T04:43:35.157Z,19.05
2022-12-11T04:46:07.576Z,18.67
2022-12-11T04:48:34.659Z,20.42
2022-12-11T04:51:01.178Z,19.88
2022-12-11T04:53:28.243Z,20.92
2022-12-11T04:55:55.047Z,21.75
2022-12-11T04:58:22.148Z,20.42
2022-12-11T05:00:48.630Z,22.02
2022-12-11T05:03:15.386Z,20.42
2022-12-11T05:05:47.956Z,20.20
2022-12-11T05:08:14.609Z,19.58
2022-12-11T05:10:44.531Z,19.80
2022-12-11T05:13:15.527Z,19.63
2022-12-11T05:15:42.083Z,19.08
2022-12-11T05:18:08.941Z,18.98
2022-12-11T05:20:35.502Z,17.67
2022-12-11T05:23:02.012Z,19.95
2022-12-11T05:25:28.547Z,18.95
2022-12-11T05:27:55.079Z,19.48
2022-12-11T05:30:21.612Z,19.17
2022-12-11T05:32:48.093Z,19.38
2022-12-11T05:35:14.679Z,19.58
2022-12-11T05:37:41.160Z,19.88
2022-12-11T05:40:08.280Z,18.70
2022-12-11T05:42:35.102Z,19.70
2022-12-11T05:45:01.610Z,20.30
2022-12-11T05:47:28.192Z,17.98
2022-12-11T05:49:54.697Z,18.77
2022-12-11T05:52:21.760Z,18.83
2022-12-11T05:54:50.274Z,19.33
2022-12-11T05:57:17.042Z,20.08
2022-12-11T05:59:43.570Z,20.83
2022-12-11T06:02:10.170Z,19.80
2022-12-11T06:04:36.780Z,19.83
2022-12-11T06:07:03.388Z,19.83
2022-12-11T06:09:29.991Z,19.45
2022-12-11T06:11:56.489Z,20.13
2022-12-11T06:14:22.940Z,19.27
2022-12-11T06:16:50.250Z,19.10
2022-12-11T06:19:18.440Z,18.98
2022-12-11T06:21:45.534Z,18.58
2022-12-11T06:24:12.285Z,20.05
2022-12-11T06:26:38.842Z,19.88
2022-12-11T06:29:09.240Z,19.10
2022-12-11T06:31:39.342Z,19.52
2022-12-11T06:34:06.069Z,19.42
2022-12-11T06:36:32.668Z,19.75
2022-12-11T06:38:59.197Z,19.77
2022-12-11T06:41:25.813Z,20.80
2022-12-11T06:43:52.470Z,17.85
2022-12-11T06:46:19.918Z,18.80
2022-12-11T06:48:47.506Z,19.20
2022-12-11T06:51:16.273Z,19.05
2022-12-11T06:53:42.845Z,20.30
2022-12-11T06:56:14.643Z,18.50
2022-12-11T06:58:42.210Z,19.20
2022-12-11T07:01:17.735Z,18.33
2022-12-11T07:03:44.776Z,17.58
2022-12-11T07:06:11.390Z,18.42
2022-12-11T07:08:37.936Z,16.83
2022-12-11T07:11:09.527Z,17.45
2022-12-11T07:13:36.308Z,18.52
2022-12-11T07:16:04.655Z,19.02
2022-12-11T07:18:32.704Z,17.05
2022-12-11T07:21:00.380Z,18.38
2022-12-11T07:23:28.376Z,17.98
2022-12-11T07:25:55.793Z,18.08
2022-12-11T07:28:22.555Z,18.10
2022-12-11T07:30:49.202Z,17.80
2022-12-11T07:33:16.012Z,18.63
2022-12-11T07:35:42.688Z,17.75
2022-12-11T07:38:09.226Z,17.85
2022-12-11T07:40:35.730Z,18.85
2022-12-11T07:43:02.257Z,17.35
2022-12-11T07:45:29.485Z,17.23
2022-12-11T07:47:56.026Z,17.95
2022-12-11T07:50:22.891Z,19.05
2022-12-11T07:52:49.392Z,19.67
2022-12-11T07:55:15.964Z,18.17
2022-12-11T07:57:42.493Z,19.08
2022-12-11T08:00:10.560Z,18.25
2022-12-11T08:02:40.996Z,18.83
2022-12-11T08:05:08.531Z,20.10
2022-12-11T08:07:35.879Z,19.27
2022-12-11T08:10:03.883Z,18.73
2022-12-11T08:12:30.530Z,18.55
2022-12-11T08:14:57.008Z,19.75
2022-12-11T08:17:29.089Z,18.63
2022-12-11T08:19:57.440Z,19.38
2022-12-11T08:22:23.950Z,19.95
2022-12-11T08:24:50.486Z,19.23
2022-12-11T08:27:17.014Z,20.38
2022-12-11T08:29:43.536Z,19.95
2022-12-11T08:32:12.512Z,19.10
2022-12-11T08:34:39.619Z,20.15
2022-12-11T08:37:06.137Z,20.13
2022-12-11T08:39:32.655Z,20.13
2022-12-11T08:41:59.117Z,18.83
2022-12-11T08:44:26.815Z,19.23
2022-12-11T08:46:53.337Z,19.83
2022-12-11T08:49:19.872Z,19.08
2022-12-11T08:51:46.402Z,19.58
2022-12-11T08:54:12.900Z,19.27
2022-12-11T08:56:39.397Z,19.95
2022-12-11T08:59:06.269Z,17.90
2022-12-11T09:01:33.101Z,20.15
2022-12-11T09:03:59.680Z,15.10
2022-12-11T09:06:28.455Z,15.82
2022-12-11T09:08:56.159Z,18.15
2022-12-11T09:11:25.660Z,15.63
2022-12-11T09:13:52.497Z,17.88
2022-12-11T09:16:21.779Z,17.85
2022-12-11T09:18:49.966Z,16.40
2022-12-11T09:21:19.704Z,17.35
2022-12-11T09:23:46.358Z,18.35
2022-12-11T09:26:16.645Z,18.52
2022-12-11T09:28:46.729Z,18.27
2022-12-11T09:31:28.428Z,16.83
2022-12-11T09:33:56.911Z,17.05
2022-12-11T09:36:24.041Z,17.70
2022-12-11T09:38:50.584Z,15.25
2022-12-11T09:41:22.827Z,17.38
2022-12-11T09:43:59.273Z,18.30
2022-12-11T09:46:30.578Z,17.48
2022-12-11T09:49:02.281Z,19.02
2022-12-11T09:51:38.105Z,16.27
2022-12-11T09:54:05.027Z,18.40
2022-12-11T09:56:39.994Z,18.73
2022-12-11T09:59:24.836Z,17.02
2022-12-11T10:02:03.731Z,16.95
2022-12-11T10:04:41.261Z,17.42
2022-12-11T10:07:23.184Z,15.73
2022-12-11T10:09:59.055Z,15.00
2022-12-11T10:12:41.213Z,15.80
2022-12-11T10:15:26.124Z,17.80
2022-12-11T10:17:59.879Z,17.23
2022-12-11T10:20:35.072Z,16.00
2022-12-11T10:23:02.848Z,16.35
2022-12-11T10:25:36.226Z,14.13
2022-12-11T10:28:13.194Z,15.10
2022-12-11T10:30:48.527Z,15.18
2022-12-11T10:33:23.969Z,15.85
2022-12-11T10:35:55.594Z,15.20
2022-12-11T10:38:31.899Z,14.30
2022-12-11T10:41:04.766Z,14.90
2022-12-11T10:43:42.351Z,16.75
2022-12-11T10:46:17.776Z,15.77
2022-12-11T10:48:48.626Z,14.77
2022-12-11T10:51:15.774Z,15.57
2022-12-11T10:53:43.512Z,16.25
2022-12-11T10:56:11.510Z,14.63
2022-12-11T10:58:41.225Z,14.57
2022-12-11T11:01:15.586Z,13.43
2022-12-11T11:03:59.197Z,14.82
2022-12-11T11:06:26.472Z,15.40
2022-12-11T11:08:57.844Z,14.25
2022-12-11T11:11:29.406Z,15.23
2022-12-11T11:14:16.224Z,14.52
2022-12-11T11:16:45.936Z,14.15
2022-12-11T11:19:27.548Z,16.02
2022-12-11T11:21:57.450Z,15.60
2022-12-11T11:24:28.014Z,15.23
2022-12-11T11:27:12.786Z,15.68
2022-12-11T11:29:40.845Z,15.73
2022-12-11T11:32:20.957Z,17.92
2022-12-11T11:34:47.471Z,14.23
2022-12-11T11:37:31.212Z,16.27
2022-12-11T11:40:04.253Z,15.80
2022-12-11T11:42:41.422Z,17.95
2022-12-11T11:45:21.950Z,15.25
2022-12-11T11:47:56.668Z,15.25
2022-12-11T11:50:27.145Z,16.42
2022-12-11T11:53:07.603Z,18.70
2022-12-11T11:55:42.113Z,18.80
2022-12-11T11:58:14.755Z,19.95
2022-12-11T12:00:41.999Z,19.90
2022-12-11T12:03:15.427Z,19.98
2022-12-11T12:05:53.628Z,19.17
2022-12-11T12:08:47.688Z,20.48
2022-12-11T12:11:40.948Z,18.90
2022-12-11T12:17:36.119Z,18.15
2022-12-11T12:20:21.015Z,20.05
2022-12-11T12:23:06.278Z,19.45
2022-12-11T12:26:10.121Z,20.02
2022-12-11T12:28:51.759Z,18.73
2022-12-11T12:31:22.733Z,21.17
2022-12-11T12:33:57.877Z,19.00
2022-12-11T12:36:37.569Z,19.88
2022-12-11T12:39:14.297Z,19.80
2022-12-11T12:41:54.042Z,19.83
2022-12-11T12:44:22.472Z,20.60
2022-12-11T12:47:24.500Z,19.70
2022-12-11T12:49:53.339Z,20.15
2022-12-11T12:52:29.829Z,20.15
2022-12-11T12:55:17.952Z,19.80
2022-12-11T12:58:00.516Z,20.13
2022-12-11T13:00:28.396Z,20.40
2022-12-11T13:02:56.214Z,20.80
2022-12-11T13:05:33.197Z,18.52
2022-12-11T13:08:02.680Z,20.77
2022-12-11T13:10:34.748Z,20.13
2022-12-11T13:13:03.381Z,20.42
2022-12-11T13:15:40.728Z,19.95
2022-12-11T13:18:37.117Z,20.85
2022-12-11T13:21:32.243Z,19.80
2022-12-11T13:24:17.705Z,18.92
2022-12-11T13:26:44.254Z,18.92
2022-12-11T13:29:39.557Z,18.85
2022-12-11T13:32:09.073Z,17.48
2022-12-11T13:34:51.550Z,18.50
2022-12-11T13:37:41.221Z,19.98
2022-12-11T13:40:17.221Z,20.35
2022-12-11T13:42:57.139Z,19.98
2022-12-11T13:45:36.659Z,18.15
2022-12-11T13:48:05.028Z,19.45
2022-12-11T13:50:33.317Z,17.25
2022-12-11T13:53:01.329Z,18.02
2022-12-11T13:55:33.568Z,19.67
2022-12-11T13:58:00.596Z,18.05
2022-12-11T14:00:32.610Z,17.77
2022-12-11T14:03:02.378Z,16.40
2022-12-11T14:05:29.212Z,18.27
2022-12-11T14:07:57.393Z,30.77
2022-12-11T14:10:28.041Z,22.70
2022-12-11T14:12:59.981Z,20.90
2022-12-11T14:15:28.884Z,33.42
2022-12-11T14:17:56.683Z,19.75
2022-12-11T14:20:26.085Z,19.45
2022-12-11T14:22:52.528Z,19.00
2022-12-11T14:25:25.809Z,16.45
2022-12-11T14:27:54.645Z,15.10
2022-12-11T14:30:22.278Z,17.13
2022-12-11T14:32:49.357Z,19.38
2022-12-11T14:35:35.515Z,15.65
2022-12-11T14:38:12.366Z,14.05
2022-12-11T14:40:41.437Z,14.43
2022-12-11T14:43:11.593Z,13.70
2022-12-11T14:45:41.134Z,12.40
2022-12-11T14:48:12.305Z,15.98
2022-12-11T14:50:48.814Z,15.43
2022-12-11T14:53:19.169Z,15.73
2022-12-11T14:55:47.092Z,15.07
2022-12-11T14:58:16.544Z,15.57
2022-12-11T15:00:43.241Z,14.57
2022-12-11T15:03:09.692Z,14.48
2022-12-11T15:05:40.777Z,15.35
2022-12-11T15:08:10.683Z,14.50
2022-12-11T15:10:41.017Z,13.95
2022-12-11T15:13:08.812Z,14.68
2022-12-11T15:15:45.502Z,14.55
2022-12-11T15:18:28.569Z,14.68
2022-12-11T15:20:58.803Z,15.23
2022-12-11T15:23:25.748Z,17.23
2022-12-11T15:25:59.882Z,17.08
2022-12-11T15:28:35.851Z,14.43
2022-12-11T15:31:24.961Z,15.10
2022-12-11T15:33:51.751Z,16.02
2022-12-11T15:36:26.580Z,15.07
2022-12-11T15:38:53.100Z,17.67
2022-12-11T15:41:26.189Z,18.30
2022-12-11T15:43:58.693Z,18.13
2022-12-11T15:46:26.097Z,17.35
2022-12-11T15:48:52.791Z,18.05
2022-12-11T15:51:19.291Z,18.95
2022-12-11T15:53:45.814Z,18.80
2022-12-11T15:56:14.314Z,18.48
2022-12-11T15:58:41.364Z,17.45
2022-12-11T16:01:07.900Z,17.67
2022-12-11T16:03:34.381Z,8.23
2022-12-11T16:06:00.948Z,17.13
2022-12-11T16:08:29.015Z,16.90
2022-12-11T16:10:56.084Z,14.93
2022-12-11T16:13:22.687Z,15.15
2022-12-11T16:15:50.613Z,14.40
2022-12-11T16:18:19.934Z,16.58
2022-12-11T16:20:47.010Z,15.18
2022-12-11T16:23:14.795Z,15.20
2022-12-11T16:25:42.354Z,14.45
2022-12-11T16:28:09.029Z,15.35
2022-12-11T16:30:37.038Z,14.00
2022-12-11T16:33:11.771Z,14.15
2022-12-11T16:35:39.645Z,15.43
2022-12-11T16:38:06.154Z,14.23
2022-12-11T16:40:32.662Z,14.68
2022-12-11T16:42:59.176Z,14.65
2022-12-11T16:45:26.626Z,15.55
2022-12-11T16:47:53.526Z,14.25
2022-12-11T16:50:20.334Z,14.20
2022-12-11T16:52:47.339Z,13.25
2022-12-11T16:55:15.068Z,13.98
2022-12-11T16:57:41.912Z,15.15
2022-12-11T17:00:12.510Z,14.27
2022-12-11T17:02:39.158Z,14.60
2022-12-11T17:05:06.093Z,14.18
2022-12-11T17:07:33.169Z,15.18
2022-12-11T17:10:01.789Z,14.02
2022-12-11T17:12:28.530Z,15.02
2022-12-11T17:14:56.015Z,14.98
2022-12-11T17:17:22.615Z,17.08
2022-12-11T17:19:49.101Z,18.08
2022-12-11T17:22:15.664Z,17.15
2022-12-11T17:24:42.189Z,17.70
2022-12-11T17:27:08.697Z,19.33
2022-12-11T17:29:35.198Z,18.25
2022-12-11T17:32:03.165Z,17.90
2022-12-11T17:34:36.034Z,17.33
2022-12-11T17:37:04.759Z,16.80
2022-12-11T17:39:31.565Z,19.83
2022-12-11T17:41:58.070Z,18.63
2022-12-11T17:44:26.436Z,18.10
2022-12-11T17:46:53.096Z,17.92
2022-12-11T17:49:19.874Z,18.00
2022-12-11T17:51:47.896Z,18.63
2022-12-11T17:54:14.440Z,19.23
2022-12-11T17:56:41.142Z,18.83
2022-12-11T17:59:07.694Z,20.20
2022-12-11T18:01:34.693Z,18.42
2022-12-11T18:04:01.796Z,18.02
2022-12-11T18:06:28.918Z,18.00
2022-12-11T18:08:55.992Z,17.67
2022-12-11T18:11:22.895Z,19.15
2022-12-11T18:13:50.421Z,17.65
2022-12-11T18:16:20.500Z,18.27
2022-12-11T18:18:48.155Z,17.15
2022-12-11T18:21:23.575Z,17.35
2022-12-11T18:23:50.376Z,17.02
2022-12-11T18:26:18.228Z,17.35
2022-12-11T18:28:45.482Z,17.85
2022-12-11T18:31:13.540Z,17.02
2022-12-11T18:33:41.506Z,17.77
2022-12-11T18:36:08.683Z,17.27
2022-12-11T18:38:36.223Z,16.35
2022-12-11T18:41:04.462Z,18.13
2022-12-11T18:43:30.929Z,17.48
2022-12-11T18:45:57.444Z,17.30
2022-12-11T18:48:24.208Z,16.92
2022-12-11T18:50:51.330Z,16.92
2022-12-11T18:53:19.447Z,16.83
2022-12-11T18:55:48.450Z,16.67
2022-12-11T18:58:18.448Z,16.10
2022-12-11T19:00:45.541Z,17.02
2022-12-11T19:03:13.742Z,16.90
2022-12-11T19:05:42.600Z,16.30
2022-12-11T19:08:11.566Z,17.08
2022-12-11T19:10:43.162Z,16.40
2022-12-11T19:13:10.060Z,16.85
2022-12-11T19:15:41.312Z,17.13
2022-12-11T19:18:08.689Z,16.70
2022-12-11T19:21:02.819Z,17.17
2022-12-11T19:23:23.853Z,15.63
2022-12-11T19:25:50.696Z,15.80
2022-12-11T19:28:17.660Z,16.35
2022-12-11T19:30:45.487Z,16.40
2022-12-11T19:33:12.254Z,16.13
2022-12-11T19:35:39.179Z,15.80
2022-12-11T19:38:05.763Z,16.75
2022-12-11T19:40:32.271Z,16.60
2022-12-11T19:42:58.741Z,17.23
2022-12-11T19:45:25.216Z,16.70
2022-12-11T19:47:51.697Z,16.95
2022-12-11T19:50:18.248Z,17.42
2022-12-11T19:52:46.517Z,16.52
2022-12-11T19:55:14.996Z,16.60
2022-12-11T19:57:41.685Z,17.17
2022-12-11T20:00:08.637Z,17.30
2022-12-11T20:02:38.804Z,16.20
2022-12-11T20:05:05.881Z,16.35
2022-12-11T20:07:32.350Z,16.92
2022-12-11T20:10:00.357Z,16.35
2022-12-11T20:12:27.128Z,17.48
2022-12-11T20:14:53.631Z,16.95
2022-12-11T20:17:20.190Z,17.25
2022-12-11T20:19:46.710Z,17.08
2022-12-11T20:22:13.267Z,16.83
2022-12-11T20:24:39.831Z,16.50
2022-12-11T20:27:08.844Z,16.17
2022-12-11T20:29:35.386Z,16.83
2022-12-11T20:32:01.968Z,15.15
2022-12-11T20:34:28.549Z,17.65
2022-12-11T20:36:56.259Z,16.67
2022-12-11T20:39:22.964Z,16.40
2022-12-11T20:41:49.427Z,16.77
2022-12-11T20:44:15.956Z,16.70
2022-12-11T20:46:42.417Z,17.38
2022-12-11T20:49:12.848Z,17.17
2022-12-11T20:51:40.584Z,18.05
2022-12-11T20:54:07.264Z,16.75
2022-12-11T20:56:33.751Z,18.02
2022-12-11T20:59:00.777Z,17.17
2022-12-11T21:01:30.025Z,17.00
2022-12-11T21:03:56.736Z,16.75
2022-12-11T21:06:25.855Z,17.85
2022-12-11T21:08:53.048Z,16.63
2022-12-11T21:11:20.233Z,17.67
2022-12-11T21:13:50.601Z,17.65
2022-12-11T21:16:17.973Z,17.73
2022-12-11T21:18:46.382Z,17.45
2022-12-11T21:21:13.296Z,17.23
2022-12-11T21:23:39.822Z,18.35
2022-12-11T21:26:06.508Z,18.10
2022-12-11T21:28:35.423Z,17.60
2022-12-11T21:31:05.116Z,16.75
2022-12-11T21:33:31.659Z,15.98
2022-12-11T21:35:59.162Z,17.73
2022-12-11T21:38:26.484Z,17.73
2022-12-11T21:40:53.613Z,16.85
2022-12-11T21:43:20.151Z,17.08
2022-12-11T21:46:03.433Z,18.45
2022-12-11T21:48:30.325Z,17.60
2022-12-11T21:51:08.257Z,17.27
2022-12-11T21:53:35.399Z,17.40
2022-12-11T21:56:07.093Z,18.70
2022-12-11T21:58:33.731Z,17.48
2022-12-11T22:01:00.316Z,18.27
2022-12-11T22:03:26.821Z,19.13
2022-12-11T22:05:53.472Z,18.45
2022-12-11T22:08:20.030Z,17.35
2022-12-11T22:10:46.589Z,17.85
2022-12-11T22:13:13.091Z,18.27
2022-12-11T22:15:39.679Z,18.13
2022-12-11T22:18:06.355Z,17.48
2022-12-11T22:20:32.835Z,17.27
2022-12-11T22:22:59.290Z,17.55
2022-12-11T22:25:25.868Z,17.77
2022-12-11T22:27:52.379Z,17.85
2022-12-11T22:30:19.025Z,17.08
2022-12-11T22:32:45.586Z,16.83
2022-12-11T22:35:12.434Z,17.10
2022-12-11T22:37:39.223Z,16.88
2022-12-11T22:40:06.345Z,17.10
2022-12-11T22:42:33.395Z,17.35
2022-12-11T22:44:59.885Z,17.60
2022-12-11T22:47:26.490Z,16.38
2022-12-11T22:49:52.969Z,16.02
2022-12-11T22:52:19.436Z,17.15
2022-12-11T22:54:46.100Z,17.05
2022-12-11T22:57:14.197Z,17.42
2022-12-11T22:59:41.110Z,17.98
2022-12-11T23:02:07.735Z,18.15
2022-12-11T23:04:34.255Z,17.52
2022-12-11T23:07:00.763Z,17.02
2022-12-11T23:09:27.233Z,16.70
2022-12-11T23:11:55.582Z,16.50
2022-12-11T23:14:22.293Z,14.98
2022-12-11T23:16:48.799Z,17.92
2022-12-11T23:19:18.521Z,17.65
2022-12-11T23:21:48.135Z,17.42
2022-12-11T23:24:14.634Z,16.52
2022-12-11T23:26:41.317Z,16.92
2022-12-11T23:29:08.542Z,16.95
2022-12-11T23:31:35.389Z,17.25
2022-12-11T23:34:02.012Z,15.93
2022-12-11T23:36:29.069Z,17.50
2022-12-11T23:38:55.545Z,17.10
2022-12-11T23:41:22.832Z,16.67
2022-12-11T23:43:49.287Z,16.80
2022-12-11T23:46:21.379Z,16.88
2022-12-11T23:48:48.515Z,16.67
2022-12-11T23:51:16.908Z,16.70
2022-12-11T23:53:43.614Z,16.45
2022-12-11T23:56:17.521Z,16.35
2022-12-11T23:58:45.085Z,16.48
